Enter the Airport ICAO Code

Search by Airport or City

Current Weather

SBRF | Recife/Guararapes–Gilberto Freyre International Airport

Recife, Pernambuco, Brazil

Last Update 27 Minutes Ago

Partly Cloudy Sky

Temperature of 26 ºC

Light to Moderate Winds from East

Temperature

26 ºC

Dew Point Temperature

20 ºC

Relative Humidity

69.7 %

Wind Direction

East (100º, Without Significant Variations)

Wind Velocity

13 km/h (07 kt)

Gusts

None

Visibility

Greater than 10 Kilometers

Sea Level Pressure

1013 hPa (Hectopascals)

Layers of Clouds

30% to 60% of Sky Covered from 640 mts (2100 ft) Above Ground Level.

METAR SBRF 052100Z 10007KT 9999 SCT021 26/20 Q1013

Weather Forecast

SBRF | Recife/Guararapes–Gilberto Freyre International Airport

Recife, Pernambuco, Brazil

Forecast valid for the next 27 Hours

In 3 hours it is expected the begining of:

Partly Cloudy Sky

Moderate Winds from East

In 6 to 9 hours it is expected the begining of:

Mostly Cloudy Sky

In 17 to 19 hours it is expected the begining of:

Partly Cloudy Sky

Maximum Temperature

28 ºC in 19 Hours

Minimum Temperature

25 ºC in 11 Hours

TAF SBRF 052100Z 0600/0624 10010KT 9999 SCT020 TN25/0608Z TX28/0616Z BECMG 0603/0606 8000 BKN017 PROB40 0608/0613 7000 SHRA BKN017 FEW023TCU BECMG 0614/0616 SCT020 RMK PHC